createdAt,value
2022-08-29T00:00:30.361Z,84.31
2022-08-29T00:02:31.788Z,84.15
2022-08-29T00:04:33.075Z,84.17
2022-08-29T00:06:34.717Z,84.35
2022-08-29T00:08:35.744Z,84.69
2022-08-29T00:10:36.757Z,85.35
2022-08-29T00:12:38.523Z,85.61
2022-08-29T00:14:40.314Z,86.06
2022-08-29T00:16:42.073Z,85.51
2022-08-29T00:18:43.380Z,84.97
2022-08-29T00:22:45.243Z,85.76
2022-08-29T00:24:46.298Z,86.02
2022-08-29T00:26:47.498Z,86.27
2022-08-29T00:28:49.382Z,86.37
2022-08-29T00:32:51.297Z,86.64
2022-08-29T00:34:52.465Z,86.88
2022-08-29T00:36:53.999Z,87.29
2022-08-29T00:38:55.575Z,87.28
2022-08-29T00:40:57.276Z,87.29
2022-08-29T00:42:58.727Z,87.04
2022-08-29T00:45:00.116Z,87.24
2022-08-29T00:47:01.667Z,87.96
2022-08-29T00:49:03.097Z,88.12
2022-08-29T00:51:04.078Z,87.93
2022-08-29T00:53:05.560Z,87.33
2022-08-29T00:55:07.000Z,87.4
2022-08-29T00:57:08.835Z,87.79
2022-08-29T00:59:10.294Z,88.05
2022-08-29T01:05:14.427Z,87.77
2022-08-29T01:07:16.419Z,88.37
2022-08-29T01:09:17.341Z,88.51
2022-08-29T01:11:18.384Z,88.51
2022-08-29T01:15:21.422Z,88.37
2022-08-29T01:17:23.025Z,88.57
2022-08-29T01:19:24.315Z,88.8
2022-08-29T01:21:25.879Z,88.73
2022-08-29T01:23:27.419Z,88.76
2022-08-29T01:25:28.618Z,88.57
2022-08-29T01:27:30.457Z,89.3
2022-08-29T01:29:31.775Z,89.98
2022-08-29T01:31:37.946Z,90.45
2022-08-29T01:33:34.895Z,90.95
2022-08-29T01:35:36.352Z,90.84
2022-08-29T01:37:37.782Z,91.57
2022-08-29T01:39:39.473Z,91.07
2022-08-29T01:41:40.837Z,90.76
2022-08-29T01:43:42.014Z,90.62
2022-08-29T01:45:43.918Z,91.11
2022-08-29T01:47:45.660Z,90.95
2022-08-29T01:49:46.976Z,91.31
2022-08-29T01:51:48.748Z,91.56
2022-08-29T01:53:50.073Z,91.51
2022-08-29T01:57:52.708Z,91.7
2022-08-29T01:59:54.509Z,92.17
2022-08-29T02:01:56.138Z,91.75
2022-08-29T02:03:57.239Z,92.36
2022-08-29T02:05:58.345Z,91.96
2022-08-29T02:07:59.835Z,91.88
2022-08-29T02:10:01.470Z,92.2
2022-08-29T02:12:02.992Z,92.21
2022-08-29T02:14:04.025Z,92.41
2022-08-29T02:16:05.193Z,93.03
2022-08-29T02:18:06.422Z,93.42
2022-08-29T02:20:07.885Z,93.25
2022-08-29T02:22:09.608Z,92.86
2022-08-29T02:24:24.775Z,92.64
2022-08-29T02:26:12.984Z,92.24
2022-08-29T02:30:15.826Z,90.53
2022-08-29T02:32:17.447Z,90.15
2022-08-29T02:34:18.457Z,89.5
2022-08-29T02:36:20.068Z,88.89
2022-08-29T02:38:21.972Z,88.71
2022-08-29T02:40:24.727Z,89.07
2022-08-29T02:42:24.866Z,89.04
2022-08-29T02:44:26.560Z,90.4
2022-08-29T02:46:27.790Z,92.07
2022-08-29T02:48:29.326Z,92.23
2022-08-29T02:50:30.377Z,92.15
2022-08-29T02:52:35.374Z,91.78
2022-08-29T02:54:33.218Z,92.08
2022-08-29T02:56:34.683Z,92.3
2022-08-29T02:58:36.446Z,92.54
2022-08-29T03:00:37.691Z,92.57
2022-08-29T03:02:39.355Z,92.69
2022-08-29T03:04:40.846Z,92.75
2022-08-29T03:06:41.901Z,93.85
2022-08-29T03:08:42.905Z,93.78
2022-08-29T03:12:46.070Z,93.59
2022-08-29T03:14:47.388Z,93.74
2022-08-29T03:16:48.903Z,93.77
2022-08-29T03:22:53.955Z,93.67
2022-08-29T03:24:55.635Z,93.72
2022-08-29T03:26:57.122Z,93.77
2022-08-29T03:28:58.500Z,93.49
2022-08-29T03:30:59.863Z,93.09
2022-08-29T03:33:01.348Z,93.02
2022-08-29T03:35:03.152Z,93.24
2022-08-29T03:37:04.815Z,93.36
2022-08-29T03:39:06.264Z,93.59
2022-08-29T03:41:07.787Z,93.94
2022-08-29T03:43:09.131Z,93.9
2022-08-29T03:45:10.938Z,93.85
2022-08-29T03:47:11.879Z,93.98
2022-08-29T03:49:13.020Z,94.38
2022-08-29T03:51:14.553Z,94.48
2022-08-29T03:53:15.764Z,94.58
2022-08-29T03:55:17.036Z,94.72
2022-08-29T03:57:18.024Z,94.66
2022-08-29T03:59:19.532Z,94.45
2022-08-29T04:01:20.646Z,94.12
2022-08-29T04:03:25.014Z,94.18
2022-08-29T04:05:23.543Z,94.17
2022-08-29T04:09:26.976Z,93.37
2022-08-29T04:11:28.322Z,93.33
2022-08-29T04:13:29.449Z,93.27
2022-08-29T04:15:30.892Z,93.6
2022-08-29T04:17:32.712Z,93.69
2022-08-29T04:21:35.928Z,93.44
2022-08-29T04:23:37.531Z,93.66
2022-08-29T04:25:39.406Z,93.65
2022-08-29T04:27:40.368Z,93.41
2022-08-29T04:29:42.349Z,93.54
2022-08-29T04:31:44.224Z,93.71
2022-08-29T04:33:45.242Z,93.91
2022-08-29T04:35:47.005Z,94.27
2022-08-29T04:37:48.313Z,94.44
2022-08-29T04:39:49.887Z,94.63
2022-08-29T04:40:59.892Z,94.63
2022-08-29T04:43:01.688Z,94.37
2022-08-29T04:45:02.773Z,94.16
2022-08-29T04:47:04.294Z,94.14
2022-08-29T04:49:05.267Z,94.26
2022-08-29T04:51:06.565Z,94.2
2022-08-29T04:53:08.323Z,94.28
2022-08-29T04:55:09.477Z,94.76
2022-08-29T04:59:12.679Z,95.04
2022-08-29T05:01:14.522Z,95.25
2022-08-29T05:03:16.372Z,95.36
2022-08-29T05:05:17.855Z,94.53
2022-08-29T05:07:19.274Z,93.26
2022-08-29T05:09:20.804Z,92.68
2022-08-29T05:11:22.612Z,92.84
2022-08-29T05:13:23.521Z,92.58
2022-08-29T05:15:25.019Z,91.69
2022-08-29T05:17:26.965Z,89.19
2022-08-29T05:19:28.236Z,88.93
2022-08-29T05:21:30.154Z,89.22
2022-08-29T05:23:31.705Z,88.48
2022-08-29T05:25:41.219Z,87.58
2022-08-29T05:27:34.675Z,87.62
2022-08-29T05:29:36.437Z,87.5
2022-08-29T05:31:37.382Z,88.46
2022-08-29T05:33:38.896Z,88.63
2022-08-29T05:35:40.136Z,86.48
2022-08-29T05:37:50.857Z,86.55
2022-08-29T05:39:43.427Z,84.23
2022-08-29T05:41:44.917Z,85.32
2022-08-29T05:43:46.176Z,84.33
2022-08-29T05:45:47.801Z,84.54
2022-08-29T05:47:49.082Z,84.83
2022-08-29T05:49:50.356Z,84.89
2022-08-29T05:51:51.677Z,84.94
2022-08-29T05:53:53.486Z,83.57
2022-08-29T05:55:55.327Z,82.72
2022-08-29T05:57:56.780Z,83.27
2022-08-29T05:59:57.773Z,84.73
2022-08-29T06:01:59.660Z,84.52
2022-08-29T06:04:01.450Z,85.74
2022-08-29T06:06:02.981Z,85.34
2022-08-29T06:08:05.432Z,85.91
2022-08-29T06:10:06.513Z,85.33
2022-08-29T06:12:07.749Z,82.17
2022-08-29T06:14:09.209Z,79.46
2022-08-29T06:16:10.640Z,78.84
2022-08-29T06:18:11.772Z,77.66
2022-08-29T06:20:13.249Z,78.99
2022-08-29T06:22:15.340Z,79.87
2022-08-29T06:24:16.552Z,81.52
2022-08-29T06:26:17.796Z,79.76
2022-08-29T06:28:23.724Z,78.97
2022-08-29T06:30:19.723Z,80.19
2022-08-29T06:32:20.748Z,81.2
2022-08-29T06:34:22.839Z,81.17
2022-08-29T06:36:23.988Z,79.25
2022-08-29T06:38:34.639Z,73.26
2022-08-29T06:40:28.186Z,73.1
2022-08-29T06:42:29.053Z,74.67
2022-08-29T06:44:30.588Z,74.25
2022-08-29T06:46:31.615Z,77.14
2022-08-29T06:50:33.645Z,75.19
2022-08-29T06:52:35.593Z,74.89
2022-08-29T06:54:36.171Z,72.37
2022-08-29T06:56:37.689Z,73.05
2022-08-29T06:58:39.327Z,72.38
2022-08-29T07:00:40.929Z,72.28
2022-08-29T07:02:41.397Z,72.57
2022-08-29T07:06:43.769Z,73
2022-08-29T07:08:46.814Z,72.73
2022-08-29T07:10:46.415Z,75.16
2022-08-29T07:16:50.151Z,73.72
2022-08-29T07:18:51.786Z,71.18
2022-08-29T07:20:53.134Z,69.53
2022-08-29T07:22:54.104Z,68.22
2022-08-29T07:24:55.598Z,67.16
2022-08-29T07:26:56.483Z,64.87
2022-08-29T07:28:57.346Z,68.83
2022-08-29T07:30:59.095Z,66.02
2022-08-29T07:33:00.686Z,65.67
2022-08-29T07:37:05.748Z,68.11
2022-08-29T07:39:05.116Z,64.95
2022-08-29T07:41:06.201Z,65.46
2022-08-29T07:43:07.708Z,65.12
2022-08-29T07:45:09.320Z,63.92
2022-08-29T07:47:10.848Z,62.28
2022-08-29T07:49:11.891Z,61.4
2022-08-29T07:51:13.576Z,62.49
2022-08-29T07:53:15.111Z,63.3
2022-08-29T07:55:15.856Z,62.09
2022-08-29T07:57:17.217Z,61.1
2022-08-29T07:59:18.625Z,60.68
2022-08-29T08:01:20.904Z,61.85
2022-08-29T08:05:22.358Z,63.19
2022-08-29T08:07:28.817Z,63.56
2022-08-29T08:09:24.863Z,62.04
2022-08-29T08:11:25.961Z,62.91
2022-08-29T08:15:28.056Z,61.36
2022-08-29T08:17:29.222Z,61.73
2022-08-29T08:19:30.475Z,61.69
2022-08-29T08:21:32.207Z,58.13
2022-08-29T08:23:33.525Z,60.22
2022-08-29T08:25:34.507Z,59.24
2022-08-29T08:27:39.285Z,61.49
2022-08-29T08:29:37.444Z,60.52
2022-08-29T08:31:39.291Z,57.94
2022-08-29T08:33:40.730Z,59.72
2022-08-29T08:35:42.167Z,60.36
2022-08-29T08:37:43.149Z,59.05
2022-08-29T08:39:44.362Z,60.03
2022-08-29T08:41:45.397Z,58.76
2022-08-29T08:43:46.621Z,58
2022-08-29T08:45:47.971Z,56.5
2022-08-29T08:47:49.406Z,58.14
2022-08-29T08:49:50.681Z,58.75
2022-08-29T08:51:52.009Z,59.75
2022-08-29T08:53:53.223Z,60.59
2022-08-29T08:55:54.690Z,57.7
2022-08-29T08:57:55.942Z,59.11
2022-08-29T08:59:56.777Z,58.56
2022-08-29T09:01:57.961Z,59.72
2022-08-29T09:03:58.865Z,60.47
2022-08-29T09:06:00.424Z,60.73
2022-08-29T09:08:01.251Z,60.3
2022-08-29T09:10:02.748Z,58.55
2022-08-29T09:14:05.498Z,59.84
2022-08-29T09:16:07.120Z,59.81
2022-08-29T09:18:08.130Z,58.8
2022-08-29T09:20:09.980Z,57.27
2022-08-29T09:22:11.375Z,59.78
2022-08-29T09:24:12.925Z,57.45
2022-08-29T09:26:14.579Z,58.36
2022-08-29T09:28:15.873Z,56.48
2022-08-29T09:30:17.191Z,56.02
2022-08-29T09:32:22.240Z,56.29
2022-08-29T09:34:19.103Z,58.16
2022-08-29T09:36:20.665Z,55.53
2022-08-29T09:38:21.458Z,55.32
2022-08-29T09:40:30.352Z,57.67
2022-08-29T09:42:23.789Z,55.59
2022-08-29T09:46:26.658Z,53.88
2022-08-29T09:48:30.033Z,53.88
2022-08-29T09:50:28.910Z,54.03
2022-08-29T09:52:30.281Z,52
2022-08-29T09:56:32.751Z,54.92
2022-08-29T09:58:37.553Z,54.12
2022-08-29T10:00:35.318Z,52.55
2022-08-29T10:02:36.197Z,55.86
2022-08-29T10:06:42.848Z,55.15
2022-08-29T10:08:39.254Z,54.16
2022-08-29T10:10:40.827Z,54.72
2022-08-29T10:12:42.204Z,54.48
2022-08-29T10:14:46.766Z,53.19
2022-08-29T10:16:45.294Z,53.96
2022-08-29T10:18:46.525Z,50.32
2022-08-29T10:20:47.865Z,52.49
2022-08-29T10:22:49.365Z,51.59
2022-08-29T10:24:50.617Z,51.94
2022-08-29T10:26:51.446Z,49.88
2022-08-29T10:28:52.431Z,50.9
2022-08-29T10:30:53.419Z,47.23
2022-08-29T10:32:54.998Z,48.76
2022-08-29T10:34:56.396Z,48.9
2022-08-29T10:36:57.293Z,49.31
2022-08-29T10:38:58.757Z,49.96
2022-08-29T10:40:59.842Z,45.81
2022-08-29T10:43:01.288Z,45.04
2022-08-29T10:45:02.164Z,46.15
2022-08-29T10:47:03.040Z,46.88
2022-08-29T10:49:04.123Z,44.48
2022-08-29T10:51:04.974Z,44.64
2022-08-29T10:55:07.756Z,48.32
2022-08-29T10:57:08.909Z,46.99
2022-08-29T10:59:09.646Z,47.78
2022-08-29T11:01:10.620Z,46.6
2022-08-29T11:03:11.841Z,47.45
2022-08-29T11:05:12.751Z,46.91
2022-08-29T11:09:15.372Z,47.38
2022-08-29T11:13:18.033Z,47.87
2022-08-29T11:15:18.958Z,46.4
2022-08-29T11:17:20.310Z,47.01
2022-08-29T11:19:22.534Z,46.46
2022-08-29T11:21:23.089Z,46.06
2022-08-29T11:23:24.672Z,45.77
2022-08-29T11:25:25.577Z,47.43
2022-08-29T11:26:09.227Z,46.65
2022-08-29T11:28:10.834Z,45.47
2022-08-29T11:30:12.508Z,42.25
2022-08-29T11:32:13.394Z,43.06
2022-08-29T11:34:14.324Z,43.5
2022-08-29T11:36:15.746Z,45.91
2022-08-29T11:38:16.627Z,45.5
2022-08-29T11:40:18.166Z,42.02
2022-08-29T11:42:49.676Z,42.34
2022-08-29T11:44:20.226Z,42.44
2022-08-29T11:48:22.521Z,44.04
2022-08-29T11:50:23.349Z,40.16
2022-08-29T11:52:24.684Z,40.04
2022-08-29T11:54:25.467Z,41.01
2022-08-29T11:56:28.113Z,39.5
2022-08-29T11:58:28.603Z,41.45
2022-08-29T12:00:29.435Z,43.4
2022-08-29T12:02:30.838Z,41.41
2022-08-29T12:04:31.809Z,39.97
2022-08-29T12:06:32.542Z,40.99
2022-08-29T12:08:37.130Z,42.67
2022-08-29T12:10:34.694Z,41.75
2022-08-29T12:12:35.683Z,42.34
2022-08-29T12:14:37.851Z,41.12
2022-08-29T12:16:37.625Z,41.28
2022-08-29T12:18:38.789Z,41.56
2022-08-29T12:20:40.298Z,39.06
2022-08-29T12:24:43.220Z,39.27
2022-08-29T12:26:44.113Z,40.95
2022-08-29T12:30:47.007Z,40.64
2022-08-29T12:32:48.424Z,41.24
2022-08-29T12:34:49.813Z,40.93
2022-08-29T12:36:51.927Z,41.16
2022-08-29T12:40:53.039Z,42.02
2022-08-29T12:42:54.507Z,40.01
2022-08-29T12:44:55.465Z,41.01
2022-08-29T12:46:56.977Z,40.88
2022-08-29T12:48:58.643Z,38.03
2022-08-29T12:50:59.508Z,40.39
2022-08-29T12:53:01.040Z,38.33
2022-08-29T12:55:02.025Z,36.51
2022-08-29T12:57:03.112Z,36.7
2022-08-29T12:59:04.456Z,38.04
2022-08-29T13:01:05.503Z,36.9
2022-08-29T13:03:09.713Z,36.42
2022-08-29T13:05:07.901Z,36.92
2022-08-29T13:07:09.499Z,36.27
2022-08-29T13:09:10.527Z,36.47
2022-08-29T13:11:11.534Z,37.55
2022-08-29T13:13:13.133Z,37.2
2022-08-29T13:15:13.902Z,37.82
2022-08-29T13:17:14.851Z,37.42
2022-08-29T13:19:16.145Z,35.96
2022-08-29T13:21:17.567Z,36.98
2022-08-29T13:23:18.973Z,37.36
2022-08-29T13:25:20.629Z,36.99
2022-08-29T13:29:23.299Z,36.51
2022-08-29T13:31:24.134Z,34.9
2022-08-29T13:33:27.086Z,33.94
2022-08-29T13:35:25.805Z,35.53
2022-08-29T13:37:26.799Z,35.07
2022-08-29T13:39:28.399Z,35.67
2022-08-29T13:41:29.156Z,37.69
2022-08-29T13:43:30.787Z,35.27
2022-08-29T13:45:32.443Z,35.16
2022-08-29T13:47:34.159Z,35.44
2022-08-29T13:49:35.648Z,37.49
2022-08-29T13:51:36.676Z,38.3
2022-08-29T13:53:37.821Z,37.01
2022-08-29T13:55:38.833Z,36.41
2022-08-29T13:57:40.287Z,35.35
2022-08-29T13:59:41.601Z,35.03
2022-08-29T14:02:08.168Z,35.94
2022-08-29T14:03:44.303Z,35.88
2022-08-29T14:05:45.486Z,34.67
2022-08-29T14:07:46.350Z,35.82
2022-08-29T14:09:47.307Z,35.54
2022-08-29T14:11:48.282Z,35.7
2022-08-29T14:13:49.396Z,33.39
2022-08-29T14:17:51.737Z,33.73
2022-08-29T14:19:52.695Z,34.64
2022-08-29T14:21:53.816Z,35.67
2022-08-29T14:23:55.394Z,35.31
2022-08-29T14:25:56.476Z,34.3
2022-08-29T14:27:57.921Z,33.78
2022-08-29T14:29:58.955Z,33.27
2022-08-29T14:32:02.747Z,34.29
2022-08-29T14:34:01.231Z,34.94
2022-08-29T14:36:02.691Z,35.35
2022-08-29T14:38:03.713Z,33.99
2022-08-29T14:40:05.265Z,34.21
2022-08-29T14:42:06.636Z,35.58
2022-08-29T14:44:08.032Z,34.52
2022-08-29T14:46:08.838Z,35.87
2022-08-29T14:48:10.214Z,36.29
2022-08-29T14:50:11.076Z,34.86
2022-08-29T14:52:12.532Z,35.37
2022-08-29T14:54:13.291Z,36.04
2022-08-29T14:56:25.691Z,33.37
2022-08-29T15:00:17.452Z,36.41
2022-08-29T15:02:18.781Z,37.69
2022-08-29T15:04:21.696Z,38.03
2022-08-29T15:06:20.849Z,35.81
2022-08-29T15:10:23.163Z,37.95
2022-08-29T15:12:23.965Z,38.32
2022-08-29T15:14:25.693Z,37.77
2022-08-29T15:16:26.815Z,37.93
2022-08-29T15:19:00.903Z,37.59
2022-08-29T15:20:35.921Z,37.25
2022-08-29T15:22:30.194Z,37.67
2022-08-29T15:26:32.738Z,37.16
2022-08-29T15:28:33.845Z,36.8
2022-08-29T15:30:35.580Z,36.94
2022-08-29T15:32:36.545Z,37.33
2022-08-29T15:34:37.383Z,35.39
2022-08-29T15:36:38.218Z,36.94
2022-08-29T15:38:39.895Z,37.58
2022-08-29T15:40:41.055Z,38.24
2022-08-29T15:42:42.277Z,37.17
2022-08-29T15:44:43.067Z,38.4
2022-08-29T15:46:50.260Z,38.38
2022-08-29T15:48:44.829Z,38.56
2022-08-29T15:50:45.610Z,37
2022-08-29T15:52:46.970Z,35.57
2022-08-29T15:54:48.154Z,38.02
2022-08-29T15:58:50.933Z,37.27
2022-08-29T16:00:52.001Z,38.11
2022-08-29T16:02:53.688Z,38.67
2022-08-29T16:04:56.647Z,36.32
2022-08-29T16:08:57.819Z,37.85
2022-08-29T16:10:58.773Z,37.76
2022-08-29T16:13:00.003Z,38.29
2022-08-29T16:15:02.396Z,37.13
2022-08-29T16:17:02.374Z,38.15
2022-08-29T16:19:03.187Z,37
2022-08-29T16:21:04.814Z,36.8
2022-08-29T16:25:07.567Z,36.52
2022-08-29T16:27:08.521Z,35.98
2022-08-29T16:29:09.987Z,37.19
2022-08-29T16:31:10.911Z,36.44
2022-08-29T16:35:14.349Z,37.48
2022-08-29T16:37:15.459Z,38.64
2022-08-29T16:39:16.761Z,38.3
2022-08-29T16:41:18.190Z,38.28
2022-08-29T16:43:18.967Z,38.92
2022-08-29T16:45:20.487Z,37.58
2022-08-29T16:47:21.672Z,38.42
2022-08-29T16:49:22.434Z,39.27
2022-08-29T16:51:23.548Z,39.75
2022-08-29T16:53:24.626Z,39.94
2022-08-29T16:55:25.569Z,39.82
2022-08-29T16:57:26.788Z,39.88
2022-08-29T16:59:27.573Z,40.58
2022-08-29T17:01:28.585Z,40.4
2022-08-29T17:03:30.103Z,40.82
2022-08-29T17:05:31.687Z,40.89
2022-08-29T17:07:32.877Z,42.01
2022-08-29T17:09:34.275Z,42.05
2022-08-29T17:13:37.463Z,42.56
2022-08-29T17:15:39.096Z,41.33
2022-08-29T17:17:40.017Z,41.45
2022-08-29T17:19:41.107Z,41.4
2022-08-29T17:21:42.149Z,42.85
2022-08-29T17:23:43.669Z,42.9
2022-08-29T17:25:44.963Z,43.19
2022-08-29T17:27:55.559Z,43.39
2022-08-29T17:29:48.232Z,43.97
2022-08-29T17:31:49.416Z,44.82
2022-08-29T17:33:51.148Z,44.88
2022-08-29T17:35:51.962Z,45.51
2022-08-29T17:37:53.141Z,45.25
2022-08-29T17:39:54.165Z,45.1
2022-08-29T17:41:55.846Z,45.89
2022-08-29T17:43:56.833Z,45.53
2022-08-29T17:45:58.021Z,46.65
2022-08-29T17:47:59.241Z,46.65
2022-08-29T17:50:00.850Z,47.83
2022-08-29T17:52:01.976Z,47.8
2022-08-29T17:56:04.654Z,48.25
2022-08-29T17:58:05.537Z,48.79
2022-08-29T18:00:06.567Z,49.33
2022-08-29T18:02:07.666Z,49.56
2022-08-29T18:04:08.641Z,49.16
2022-08-29T18:06:09.667Z,50.34
2022-08-29T18:08:11.140Z,50.78
2022-08-29T18:10:12.887Z,50.67
2022-08-29T18:10:56.605Z,51.13
2022-08-29T18:12:58.201Z,52.17
2022-08-29T18:14:59.449Z,51.6
2022-08-29T18:17:01.246Z,52.25
2022-08-29T18:19:02.055Z,52.42
2022-08-29T18:21:03.541Z,52.95
2022-08-29T18:23:04.365Z,52.95
2022-08-29T18:25:05.828Z,53.4
2022-08-29T18:27:07.063Z,54.19
2022-08-29T18:29:08.095Z,57.12
2022-08-29T18:33:10.871Z,56.52
2022-08-29T18:35:11.804Z,57.33
2022-08-29T18:39:14.707Z,57.82
2022-08-29T18:41:15.632Z,57.71
2022-08-29T18:43:16.964Z,58.3
2022-08-29T18:45:18.272Z,58.61
2022-08-29T18:49:21.226Z,60.2
2022-08-29T18:51:22.439Z,61.75
2022-08-29T18:53:32.600Z,61.07
2022-08-29T18:55:25.082Z,61.68
2022-08-29T18:57:25.996Z,60.93
2022-08-29T18:59:27.915Z,60.95
2022-08-29T19:01:29.793Z,60.85
2022-08-29T19:03:30.957Z,61.13
2022-08-29T19:05:32.775Z,61.28
2022-08-29T19:07:33.621Z,62.27
2022-08-29T19:09:34.873Z,62.41
2022-08-29T19:11:36.431Z,61.35
2022-08-29T19:13:37.905Z,59.8
2022-08-29T19:15:41.484Z,59.42
2022-08-29T19:17:40.562Z,59.13
2022-08-29T19:19:41.457Z,59.22
2022-08-29T19:21:42.930Z,59.98
2022-08-29T19:23:44.266Z,60.63
2022-08-29T19:25:45.196Z,61.31
2022-08-29T19:29:49.172Z,61.59
2022-08-29T19:31:49.720Z,61.8
2022-08-29T19:33:51.060Z,62
2022-08-29T19:35:52.056Z,64.3
2022-08-29T19:37:53.264Z,65.5
2022-08-29T19:39:54.710Z,66.14
2022-08-29T19:41:56.299Z,65.92
2022-08-29T19:43:57.334Z,67.73
2022-08-29T19:45:59.075Z,67.71
2022-08-29T19:47:59.783Z,67.71
2022-08-29T19:50:01.401Z,67.47
2022-08-29T19:52:02.996Z,67.16
2022-08-29T19:54:04.840Z,68.44
2022-08-29T19:56:06.108Z,68.86
2022-08-29T19:58:07.810Z,68.75
2022-08-29T20:00:10.655Z,67.76
2022-08-29T20:02:10.597Z,67.84
2022-08-29T20:04:11.869Z,68.28
2022-08-29T20:06:12.835Z,68.86
2022-08-29T20:08:14.663Z,70.62
2022-08-29T20:10:16.022Z,70.3
2022-08-29T20:14:18.874Z,70.95
2022-08-29T20:16:19.966Z,70.95
2022-08-29T20:18:21.303Z,71.12
2022-08-29T20:20:23.046Z,72.28
2022-08-29T20:22:24.152Z,72.05
2022-08-29T20:24:25.966Z,73.47
2022-08-29T20:26:26.902Z,73.69
2022-08-29T20:28:27.965Z,74.13
2022-08-29T20:30:29.308Z,74.48
2022-08-29T20:32:30.245Z,73.77
2022-08-29T20:34:32.005Z,73.72
2022-08-29T20:36:33.075Z,73.39
2022-08-29T20:38:34.104Z,73.62
2022-08-29T20:40:35.469Z,73.49
2022-08-29T20:42:37.058Z,73.86
2022-08-29T20:44:38.568Z,73.92
2022-08-29T20:46:39.726Z,74.24
2022-08-29T20:48:41.232Z,74.31
2022-08-29T20:50:42.569Z,73.8
2022-08-29T20:52:43.809Z,74.07
2022-08-29T20:54:46.115Z,74.71
2022-08-29T20:56:47.027Z,75.19
2022-08-29T20:58:48.262Z,75.67
2022-08-29T21:02:51.087Z,75.52
2022-08-29T21:04:51.999Z,76.5
2022-08-29T21:06:52.978Z,78.05
2022-08-29T21:08:54.070Z,76.66
2022-08-29T21:12:57.168Z,76.18
2022-08-29T21:14:58.475Z,75.85
2022-08-29T21:19:01.241Z,75.06
2022-08-29T21:21:03.128Z,75.05
2022-08-29T21:23:04.897Z,75.97
2022-08-29T21:25:06.483Z,75.77
2022-08-29T21:29:08.854Z,77.81
2022-08-29T21:31:10.398Z,77.28
2022-08-29T21:33:11.706Z,76.83
2022-08-29T21:35:13.247Z,77.6
2022-08-29T21:37:14.700Z,78.41
2022-08-29T21:39:19.634Z,78.71
2022-08-29T21:41:17.565Z,78.19
2022-08-29T21:43:19.304Z,78.11
2022-08-29T21:45:21.185Z,78.2
2022-08-29T21:47:22.914Z,77.76
2022-08-29T21:49:24.105Z,78.35
2022-08-29T21:51:25.853Z,79.16
2022-08-29T21:55:28.873Z,79.77
2022-08-29T21:57:30.231Z,79.76
2022-08-29T21:59:31.698Z,80.63
2022-08-29T22:01:32.672Z,80.96
2022-08-29T22:03:34.299Z,80.57
2022-08-29T22:05:35.790Z,80.44
2022-08-29T22:07:37.275Z,80.64
2022-08-29T22:09:38.747Z,80.91
2022-08-29T22:11:40.562Z,81.53
2022-08-29T22:13:41.714Z,82.24
2022-08-29T22:15:43.271Z,82.43
2022-08-29T22:17:44.963Z,82.04
2022-08-29T22:19:46.220Z,81.46
2022-08-29T22:21:48.095Z,80.98
2022-08-29T22:23:49.661Z,80.47
2022-08-29T22:25:51.147Z,80.9
2022-08-29T22:27:53.009Z,81.17
2022-08-29T22:29:54.766Z,81.72
2022-08-29T22:31:56.545Z,81.86
2022-08-29T22:33:58.245Z,82.69
2022-08-29T22:35:59.469Z,83.15
2022-08-29T22:38:00.838Z,82.82
2022-08-29T22:40:02.364Z,82.44
2022-08-29T22:42:03.989Z,82.41
2022-08-29T22:44:42.700Z,82.51
2022-08-29T22:46:06.237Z,82.64
2022-08-29T22:48:07.232Z,82.02
2022-08-29T22:50:09.052Z,82.33
2022-08-29T22:52:11.496Z,82.3
2022-08-29T22:54:11.816Z,82.56
2022-08-29T22:56:13.471Z,82.7
2022-08-29T22:58:14.775Z,83.42
2022-08-29T23:00:15.700Z,83.39
2022-08-29T23:02:17.657Z,84.02
2022-08-29T23:04:18.770Z,84.47
2022-08-29T23:06:20.004Z,85.74
2022-08-29T23:08:21.455Z,86.67
2022-08-29T23:10:23.276Z,86.58
2022-08-29T23:12:25.019Z,87.01
2022-08-29T23:14:26.543Z,86.05
2022-08-29T23:16:28.116Z,86.18
2022-08-29T23:20:31.594Z,87.37
2022-08-29T23:22:33.394Z,86.29
2022-08-29T23:24:35.260Z,86.49
2022-08-29T23:26:37.030Z,86
2022-08-29T23:28:38.842Z,86.07
2022-08-29T23:30:40.791Z,86.16
2022-08-29T23:32:41.793Z,87.15
2022-08-29T23:34:42.944Z,87.19
2022-08-29T23:36:44.308Z,87.41
2022-08-29T23:38:45.314Z,86.84
2022-08-29T23:40:46.297Z,86.66
2022-08-29T23:42:47.580Z,86.66
2022-08-29T23:44:49.121Z,86.35
2022-08-29T23:46:50.726Z,85.31
2022-08-29T23:48:52.258Z,85.71
2022-08-29T23:50:53.186Z,86.19
2022-08-29T23:52:54.791Z,85.71
2022-08-29T23:54:56.507Z,85.61
2022-08-29T23:56:57.982Z,85.84
2022-08-29T23:58:59.405Z,85.49
